sensor_id;sensor_type;location;lat;lon;timestamp;temperature;humidity
24103;DHT22;12278;53.058;9.028;2022-10-16T00:02:15;13.20;99.90
24103;DHT22;12278;53.058;9.028;2022-10-16T00:06:17;13.10;99.90
24103;DHT22;12278;53.058;9.028;2022-10-16T00:10:18;13.10;99.90
24103;DHT22;12278;53.058;9.028;2022-10-16T00:14:19;13.00;99.90
24103;DHT22;12278;53.058;9.028;2022-10-16T00:18:19;13.00;99.90
24103;DHT22;12278;53.058;9.028;2022-10-16T00:22:29;13.00;99.90
24103;DHT22;12278;53.058;9.028;2022-10-16T00:26:49;12.90;99.90
24103;DHT22;12278;53.058;9.028;2022-10-16T00:31:19;12.90;99.90
24103;DHT22;12278;53.058;9.028;2022-10-16T00:35:20;12.80;99.90
24103;DHT22;12278;53.058;9.028;2022-10-16T00:39:22;12.70;99.90
24103;DHT22;12278;53.058;9.028;2022-10-16T00:43:36;12.80;99.90
24103;DHT22;12278;53.058;9.028;2022-10-16T00:47:43;12.60;99.90
24103;DHT22;12278;53.058;9.028;2022-10-16T00:51:49;12.60;99.90
24103;DHT22;12278;53.058;9.028;2022-10-16T00:55:50;12.60;99.90
24103;DHT22;12278;53.058;9.028;2022-10-16T00:59:52;12.60;99.90
24103;DHT22;12278;53.058;9.028;2022-10-16T01:03:53;12.70;99.90
24103;DHT22;12278;53.058;9.028;2022-10-16T01:20:33;12.60;99.90
24103;DHT22;12278;53.058;9.028;2022-10-16T01:24:40;12.60;99.90
24103;DHT22;12278;53.058;9.028;2022-10-16T01:28:42;12.60;99.90
24103;DHT22;12278;53.058;9.028;2022-10-16T01:33:10;12.60;99.90
24103;DHT22;12278;53.058;9.028;2022-10-16T01:37:15;12.70;99.90
24103;DHT22;12278;53.058;9.028;2022-10-16T01:41:22;12.60;99.90
24103;DHT22;12278;53.058;9.028;2022-10-16T01:45:25;12.50;99.90
24103;DHT22;12278;53.058;9.028;2022-10-16T01:49:31;12.50;99.90
24103;DHT22;12278;53.058;9.028;2022-10-16T01:53:32;12.40;99.90
24103;DHT22;12278;53.058;9.028;2022-10-16T01:57:36;12.40;99.90
24103;DHT22;12278;53.058;9.028;2022-10-16T02:01:40;12.40;99.90
24103;DHT22;12278;53.058;9.028;2022-10-16T02:05:47;12.40;99.90
24103;DHT22;12278;53.058;9.028;2022-10-16T02:09:50;12.40;99.90
24103;DHT22;12278;53.058;9.028;2022-10-16T02:13:55;12.40;99.90
24103;DHT22;12278;53.058;9.028;2022-10-16T02:17:57;12.30;99.90
24103;DHT22;12278;53.058;9.028;2022-10-16T02:22:01;12.30;99.90
24103;DHT22;12278;53.058;9.028;2022-10-16T02:26:05;12.30;99.90
24103;DHT22;12278;53.058;9.028;2022-10-16T02:30:19;12.20;99.90
24103;DHT22;12278;53.058;9.028;2022-10-16T02:34:22;12.30;99.90
24103;DHT22;12278;53.058;9.028;2022-10-16T02:38:25;12.20;99.90
24103;DHT22;12278;53.058;9.028;2022-10-16T02:42:33;12.10;99.90
24103;DHT22;12278;53.058;9.028;2022-10-16T02:46:34;12.00;99.90
24103;DHT22;12278;53.058;9.028;2022-10-16T02:50:35;11.90;99.90
24103;DHT22;12278;53.058;9.028;2022-10-16T02:54:35;12.00;99.90
24103;DHT22;12278;53.058;9.028;2022-10-16T02:58:36;12.00;99.90
24103;DHT22;12278;53.058;9.028;2022-10-16T03:02:37;12.00;99.90
24103;DHT22;12278;53.058;9.028;2022-10-16T03:06:38;11.90;99.90
24103;DHT22;12278;53.058;9.028;2022-10-16T03:10:38;12.00;99.90
24103;DHT22;12278;53.058;9.028;2022-10-16T03:14:39;12.00;99.90
24103;DHT22;12278;53.058;9.028;2022-10-16T03:18:40;12.00;99.90
24103;DHT22;12278;53.058;9.028;2022-10-16T03:22:41;12.00;99.90
24103;DHT22;12278;53.058;9.028;2022-10-16T03:26:41;12.00;99.90
24103;DHT22;12278;53.058;9.028;2022-10-16T03:30:43;12.00;99.90
24103;DHT22;12278;53.058;9.028;2022-10-16T03:34:44;12.00;99.90
24103;DHT22;12278;53.058;9.028;2022-10-16T03:38:44;12.00;99.90
24103;DHT22;12278;53.058;9.028;2022-10-16T03:42:45;12.10;99.90
24103;DHT22;12278;53.058;9.028;2022-10-16T03:46:45;12.10;99.90
24103;DHT22;12278;53.058;9.028;2022-10-16T03:50:46;12.10;99.90
24103;DHT22;12278;53.058;9.028;2022-10-16T03:54:48;12.10;99.90
24103;DHT22;12278;53.058;9.028;2022-10-16T03:58:49;12.20;99.90
24103;DHT22;12278;53.058;9.028;2022-10-16T04:02:49;12.10;99.90
24103;DHT22;12278;53.058;9.028;2022-10-16T04:06:50;12.00;99.90
24103;DHT22;12278;53.058;9.028;2022-10-16T04:10:51;12.00;99.90
24103;DHT22;12278;53.058;9.028;2022-10-16T04:14:51;12.00;99.90
24103;DHT22;12278;53.058;9.028;2022-10-16T04:18:52;12.10;99.90
24103;DHT22;12278;53.058;9.028;2022-10-16T04:22:53;12.10;99.90
24103;DHT22;12278;53.058;9.028;2022-10-16T04:26:53;12.10;99.90
24103;DHT22;12278;53.058;9.028;2022-10-16T04:30:54;12.20;99.90
24103;DHT22;12278;53.058;9.028;2022-10-16T04:34:55;12.20;99.90
24103;DHT22;12278;53.058;9.028;2022-10-16T04:38:55;12.20;99.90
24103;DHT22;12278;53.058;9.028;2022-10-16T04:42:56;12.20;99.90
24103;DHT22;12278;53.058;9.028;2022-10-16T04:46:56;12.10;99.90
24103;DHT22;12278;53.058;9.028;2022-10-16T04:50:57;12.20;99.90
24103;DHT22;12278;53.058;9.028;2022-10-16T04:54:58;12.10;99.90
24103;DHT22;12278;53.058;9.028;2022-10-16T04:59:02;12.10;99.90
24103;DHT22;12278;53.058;9.028;2022-10-16T05:03:02;12.10;99.90
24103;DHT22;12278;53.058;9.028;2022-10-16T05:07:06;12.20;99.90
24103;DHT22;12278;53.058;9.028;2022-10-16T05:11:06;12.10;99.90
24103;DHT22;12278;53.058;9.028;2022-10-16T05:15:08;12.10;99.90
24103;DHT22;12278;53.058;9.028;2022-10-16T05:19:08;12.10;99.90
24103;DHT22;12278;53.058;9.028;2022-10-16T05:27:51;12.10;99.90
24103;DHT22;12278;53.058;9.028;2022-10-16T05:31:55;12.10;99.90
24103;DHT22;12278;53.058;9.028;2022-10-16T05:36:06;12.20;99.90
24103;DHT22;12278;53.058;9.028;2022-10-16T05:40:12;12.20;99.90
24103;DHT22;12278;53.058;9.028;2022-10-16T05:44:16;12.40;99.90
24103;DHT22;12278;53.058;9.028;2022-10-16T05:48:35;12.40;99.90
24103;DHT22;12278;53.058;9.028;2022-10-16T05:52:35;12.40;99.90
24103;DHT22;12278;53.058;9.028;2022-10-16T05:57:02;12.50;99.90
24103;DHT22;12278;53.058;9.028;2022-10-16T06:01:11;12.40;99.90
24103;DHT22;12278;53.058;9.028;2022-10-16T06:05:12;12.50;99.90
24103;DHT22;12278;53.058;9.028;2022-10-16T06:09:15;12.50;99.90
24103;DHT22;12278;53.058;9.028;2022-10-16T06:13:16;12.50;99.90
24103;DHT22;12278;53.058;9.028;2022-10-16T06:17:16;12.50;99.90
24103;DHT22;12278;53.058;9.028;2022-10-16T06:21:35;12.50;99.90
24103;DHT22;12278;53.058;9.028;2022-10-16T06:25:36;12.50;99.90
24103;DHT22;12278;53.058;9.028;2022-10-16T06:29:37;12.50;99.90
24103;DHT22;12278;53.058;9.028;2022-10-16T06:33:41;12.50;99.90
24103;DHT22;12278;53.058;9.028;2022-10-16T06:37:44;12.50;99.90
24103;DHT22;12278;53.058;9.028;2022-10-16T06:41:44;12.60;99.90
24103;DHT22;12278;53.058;9.028;2022-10-16T06:45:55;12.60;99.90
24103;DHT22;12278;53.058;9.028;2022-10-16T06:49:57;12.60;99.90
24103;DHT22;12278;53.058;9.028;2022-10-16T06:53:58;12.70;99.90
24103;DHT22;12278;53.058;9.028;2022-10-16T06:57:59;12.80;99.90
24103;DHT22;12278;53.058;9.028;2022-10-16T07:02:00;12.90;99.90
24103;DHT22;12278;53.058;9.028;2022-10-16T07:06:08;13.00;99.90
24103;DHT22;12278;53.058;9.028;2022-10-16T07:10:09;13.20;99.90
24103;DHT22;12278;53.058;9.028;2022-10-16T07:14:22;13.30;99.90
24103;DHT22;12278;53.058;9.028;2022-10-16T07:18:22;13.50;99.90
24103;DHT22;12278;53.058;9.028;2022-10-16T07:22:29;13.60;99.90
24103;DHT22;12278;53.058;9.028;2022-10-16T07:26:32;13.80;99.90
24103;DHT22;12278;53.058;9.028;2022-10-16T07:30:35;13.90;99.90
24103;DHT22;12278;53.058;9.028;2022-10-16T07:34:36;14.00;99.90
24103;DHT22;12278;53.058;9.028;2022-10-16T07:38:44;14.20;99.90
24103;DHT22;12278;53.058;9.028;2022-10-16T07:42:45;14.30;99.90
24103;DHT22;12278;53.058;9.028;2022-10-16T07:46:50;14.80;99.90
24103;DHT22;12278;53.058;9.028;2022-10-16T07:51:05;15.00;99.90
24103;DHT22;12278;53.058;9.028;2022-10-16T07:55:06;15.70;99.90
24103;DHT22;12278;53.058;9.028;2022-10-16T07:59:09;15.60;99.90
24103;DHT22;12278;53.058;9.028;2022-10-16T08:03:10;15.20;99.90
24103;DHT22;12278;53.058;9.028;2022-10-16T08:07:10;15.20;99.90
24103;DHT22;12278;53.058;9.028;2022-10-16T08:11:11;15.30;99.90
24103;DHT22;12278;53.058;9.028;2022-10-16T08:15:12;15.30;99.90
24103;DHT22;12278;53.058;9.028;2022-10-16T08:19:12;15.50;99.90
24103;DHT22;12278;53.058;9.028;2022-10-16T08:23:15;15.70;99.90
24103;DHT22;12278;53.058;9.028;2022-10-16T08:27:17;16.00;99.90
24103;DHT22;12278;53.058;9.028;2022-10-16T08:31:20;16.20;99.90
24103;DHT22;12278;53.058;9.028;2022-10-16T08:35:23;16.60;99.90
24103;DHT22;12278;53.058;9.028;2022-10-16T08:39:24;16.70;99.90
24103;DHT22;12278;53.058;9.028;2022-10-16T08:43:34;16.10;99.90
24103;DHT22;12278;53.058;9.028;2022-10-16T08:52:12;16.30;99.90
24103;DHT22;12278;53.058;9.028;2022-10-16T08:56:14;16.30;99.90
24103;DHT22;12278;53.058;9.028;2022-10-16T09:00:16;16.50;99.90
24103;DHT22;12278;53.058;9.028;2022-10-16T09:13:17;17.20;99.90
24103;DHT22;12278;53.058;9.028;2022-10-16T09:17:37;17.50;99.90
24103;DHT22;12278;53.058;9.028;2022-10-16T09:21:41;17.10;99.90
24103;DHT22;12278;53.058;9.028;2022-10-16T09:25:45;17.50;99.90
24103;DHT22;12278;53.058;9.028;2022-10-16T09:29:47;18.00;99.90
24103;DHT22;12278;53.058;9.028;2022-10-16T09:33:55;18.20;99.90
24103;DHT22;12278;53.058;9.028;2022-10-16T09:37:59;18.10;99.90
24103;DHT22;12278;53.058;9.028;2022-10-16T09:42:00;18.20;99.90
24103;DHT22;12278;53.058;9.028;2022-10-16T09:50:13;18.50;99.90
24103;DHT22;12278;53.058;9.028;2022-10-16T09:54:20;18.20;99.90
24103;DHT22;12278;53.058;9.028;2022-10-16T09:58:22;18.40;99.90
24103;DHT22;12278;53.058;9.028;2022-10-16T10:02:30;17.80;99.90
24103;DHT22;12278;53.058;9.028;2022-10-16T10:06:37;17.70;99.90
24103;DHT22;12278;53.058;9.028;2022-10-16T10:10:43;17.30;99.90
24103;DHT22;12278;53.058;9.028;2022-10-16T10:14:47;17.20;99.90
24103;DHT22;12278;53.058;9.028;2022-10-16T10:18:58;18.10;99.90
24103;DHT22;12278;53.058;9.028;2022-10-16T10:22:59;18.20;99.90
24103;DHT22;12278;53.058;9.028;2022-10-16T10:27:06;18.80;99.90
24103;DHT22;12278;53.058;9.028;2022-10-16T10:35:20;18.80;99.90
24103;DHT22;12278;53.058;9.028;2022-10-16T10:39:38;18.80;99.90
24103;DHT22;12278;53.058;9.028;2022-10-16T10:48:03;18.00;99.90
24103;DHT22;12278;53.058;9.028;2022-10-16T11:01:15;17.80;99.90
24103;DHT22;12278;53.058;9.028;2022-10-16T11:05:37;18.50;99.90
24103;DHT22;12278;53.058;9.028;2022-10-16T11:09:56;18.30;99.90
24103;DHT22;12278;53.058;9.028;2022-10-16T11:14:30;18.20;99.90
24103;DHT22;12278;53.058;9.028;2022-10-16T11:18:41;19.50;99.90
24103;DHT22;12278;53.058;9.028;2022-10-16T11:23:08;19.30;99.90
24103;DHT22;12278;53.058;9.028;2022-10-16T11:27:09;20.30;99.90
24103;DHT22;12278;53.058;9.028;2022-10-16T11:31:28;20.60;99.90
24103;DHT22;12278;53.058;9.028;2022-10-16T11:39:44;19.30;99.90
24103;DHT22;12278;53.058;9.028;2022-10-16T11:52:43;19.40;99.90
24103;DHT22;12278;53.058;9.028;2022-10-16T11:56:46;18.90;99.90
24103;DHT22;12278;53.058;9.028;2022-10-16T12:05:33;19.00;99.90
24103;DHT22;12278;53.058;9.028;2022-10-16T12:09:37;18.80;99.90
24103;DHT22;12278;53.058;9.028;2022-10-16T12:13:40;19.10;99.90
24103;DHT22;12278;53.058;9.028;2022-10-16T12:17:41;19.20;99.90
24103;DHT22;12278;53.058;9.028;2022-10-16T12:21:43;19.60;99.90
24103;DHT22;12278;53.058;9.028;2022-10-16T12:25:57;19.60;99.90
24103;DHT22;12278;53.058;9.028;2022-10-16T12:30:04;19.50;99.90
24103;DHT22;12278;53.058;9.028;2022-10-16T12:34:06;19.30;99.90
24103;DHT22;12278;53.058;9.028;2022-10-16T12:38:18;19.70;99.90
24103;DHT22;12278;53.058;9.028;2022-10-16T12:42:37;19.50;99.90
24103;DHT22;12278;53.058;9.028;2022-10-16T12:46:39;19.60;99.90
24103;DHT22;12278;53.058;9.028;2022-10-16T12:50:40;19.40;99.90
24103;DHT22;12278;53.058;9.028;2022-10-16T12:54:41;19.30;99.90
24103;DHT22;12278;53.058;9.028;2022-10-16T13:12:11;18.50;99.90
24103;DHT22;12278;53.058;9.028;2022-10-16T13:16:31;18.40;99.90
24103;DHT22;12278;53.058;9.028;2022-10-16T13:20:46;18.70;99.90
24103;DHT22;12278;53.058;9.028;2022-10-16T13:29:03;18.80;99.90
24103;DHT22;12278;53.058;9.028;2022-10-16T13:37:37;18.20;99.90
24103;DHT22;12278;53.058;9.028;2022-10-16T13:41:39;18.10;99.90
24103;DHT22;12278;53.058;9.028;2022-10-16T13:45:40;20.20;99.90
24103;DHT22;12278;53.058;9.028;2022-10-16T13:49:43;21.60;99.70
24103;DHT22;12278;53.058;9.028;2022-10-16T13:53:45;22.60;98.60
24103;DHT22;12278;53.058;9.028;2022-10-16T13:57:46;23.50;97.10
24103;DHT22;12278;53.058;9.028;2022-10-16T14:01:46;24.40;95.60
24103;DHT22;12278;53.058;9.028;2022-10-16T14:05:55;24.50;94.70
24103;DHT22;12278;53.058;9.028;2022-10-16T14:09:58;25.10;94.30
24103;DHT22;12278;53.058;9.028;2022-10-16T14:14:02;25.90;92.60
24103;DHT22;12278;53.058;9.028;2022-10-16T14:18:03;25.90;92.00
24103;DHT22;12278;53.058;9.028;2022-10-16T14:22:30;26.30;90.70
24103;DHT22;12278;53.058;9.028;2022-10-16T14:26:42;24.80;91.20
24103;DHT22;12278;53.058;9.028;2022-10-16T14:35:39;24.80;92.20
24103;DHT22;12278;53.058;9.028;2022-10-16T14:39:40;25.50;91.00
24103;DHT22;12278;53.058;9.028;2022-10-16T14:43:42;24.60;91.60
24103;DHT22;12278;53.058;9.028;2022-10-16T14:47:54;24.50;92.20
24103;DHT22;12278;53.058;9.028;2022-10-16T14:51:57;24.50;92.10
24103;DHT22;12278;53.058;9.028;2022-10-16T14:55:58;22.80;93.20
24103;DHT22;12278;53.058;9.028;2022-10-16T14:59:59;21.40;95.90
24103;DHT22;12278;53.058;9.028;2022-10-16T15:03:59;20.00;98.60
24103;DHT22;12278;53.058;9.028;2022-10-16T15:08:00;19.30;99.50
24103;DHT22;12278;53.058;9.028;2022-10-16T15:12:01;18.90;99.90
24103;DHT22;12278;53.058;9.028;2022-10-16T15:16:04;18.90;99.90
24103;DHT22;12278;53.058;9.028;2022-10-16T15:20:05;18.90;99.90
24103;DHT22;12278;53.058;9.028;2022-10-16T15:24:11;19.10;99.90
24103;DHT22;12278;53.058;9.028;2022-10-16T15:28:13;19.90;99.70
24103;DHT22;12278;53.058;9.028;2022-10-16T15:32:13;21.00;98.50
24103;DHT22;12278;53.058;9.028;2022-10-16T15:36:16;21.90;96.90
24103;DHT22;12278;53.058;9.028;2022-10-16T15:40:20;21.80;96.60
24103;DHT22;12278;53.058;9.028;2022-10-16T15:44:23;20.10;98.90
24103;DHT22;12278;53.058;9.028;2022-10-16T15:48:28;18.90;99.90
24103;DHT22;12278;53.058;9.028;2022-10-16T15:52:29;18.30;99.90
24103;DHT22;12278;53.058;9.028;2022-10-16T15:56:32;17.70;99.90
24103;DHT22;12278;53.058;9.028;2022-10-16T16:00:33;17.50;99.90
24103;DHT22;12278;53.058;9.028;2022-10-16T16:04:34;17.10;99.90
24103;DHT22;12278;53.058;9.028;2022-10-16T16:08:35;16.90;99.90
24103;DHT22;12278;53.058;9.028;2022-10-16T16:12:35;16.70;99.90
24103;DHT22;12278;53.058;9.028;2022-10-16T16:16:37;16.40;99.90
24103;DHT22;12278;53.058;9.028;2022-10-16T16:20:38;16.00;99.90
24103;DHT22;12278;53.058;9.028;2022-10-16T16:24:39;15.80;99.90
24103;DHT22;12278;53.058;9.028;2022-10-16T16:28:41;15.70;99.90
24103;DHT22;12278;53.058;9.028;2022-10-16T16:32:41;15.60;99.90
24103;DHT22;12278;53.058;9.028;2022-10-16T16:36:46;15.50;99.90
24103;DHT22;12278;53.058;9.028;2022-10-16T16:40:46;15.30;99.90
24103;DHT22;12278;53.058;9.028;2022-10-16T16:44:47;15.10;99.90
24103;DHT22;12278;53.058;9.028;2022-10-16T16:48:48;14.90;99.90
24103;DHT22;12278;53.058;9.028;2022-10-16T16:52:53;14.80;99.90
24103;DHT22;12278;53.058;9.028;2022-10-16T16:56:54;14.70;99.90
24103;DHT22;12278;53.058;9.028;2022-10-16T17:00:54;14.60;99.90
24103;DHT22;12278;53.058;9.028;2022-10-16T17:04:55;14.50;99.90
24103;DHT22;12278;53.058;9.028;2022-10-16T17:08:58;14.40;99.90
24103;DHT22;12278;53.058;9.028;2022-10-16T17:13:00;14.20;99.90
24103;DHT22;12278;53.058;9.028;2022-10-16T17:17:01;14.10;99.90
24103;DHT22;12278;53.058;9.028;2022-10-16T17:21:04;14.00;99.90
24103;DHT22;12278;53.058;9.028;2022-10-16T17:25:05;13.90;99.90
24103;DHT22;12278;53.058;9.028;2022-10-16T17:29:10;13.80;99.90
24103;DHT22;12278;53.058;9.028;2022-10-16T17:33:12;13.70;99.90
24103;DHT22;12278;53.058;9.028;2022-10-16T17:37:13;13.60;99.90
24103;DHT22;12278;53.058;9.028;2022-10-16T17:41:16;13.50;99.90
24103;DHT22;12278;53.058;9.028;2022-10-16T17:45:17;13.50;99.90
24103;DHT22;12278;53.058;9.028;2022-10-16T17:49:18;13.30;99.90
24103;DHT22;12278;53.058;9.028;2022-10-16T17:53:19;13.30;99.90
24103;DHT22;12278;53.058;9.028;2022-10-16T17:57:20;13.20;99.90
24103;DHT22;12278;53.058;9.028;2022-10-16T18:01:26;13.20;99.90
24103;DHT22;12278;53.058;9.028;2022-10-16T18:05:27;13.00;99.90
24103;DHT22;12278;53.058;9.028;2022-10-16T18:09:28;13.00;99.90
24103;DHT22;12278;53.058;9.028;2022-10-16T18:13:29;13.00;99.90
24103;DHT22;12278;53.058;9.028;2022-10-16T18:17:29;12.90;99.90
24103;DHT22;12278;53.058;9.028;2022-10-16T18:21:31;12.90;99.90
24103;DHT22;12278;53.058;9.028;2022-10-16T18:25:31;12.80;99.90
24103;DHT22;12278;53.058;9.028;2022-10-16T18:29:32;12.80;99.90
24103;DHT22;12278;53.058;9.028;2022-10-16T18:33:32;12.80;99.90
24103;DHT22;12278;53.058;9.028;2022-10-16T18:37:37;12.80;99.90
24103;DHT22;12278;53.058;9.028;2022-10-16T18:41:40;12.70;99.90
24103;DHT22;12278;53.058;9.028;2022-10-16T18:45:41;12.70;99.90
24103;DHT22;12278;53.058;9.028;2022-10-16T18:49:41;12.60;99.90
24103;DHT22;12278;53.058;9.028;2022-10-16T18:53:45;12.50;99.90
24103;DHT22;12278;53.058;9.028;2022-10-16T18:57:46;12.60;99.90
24103;DHT22;12278;53.058;9.028;2022-10-16T19:01:48;12.60;99.90
24103;DHT22;12278;53.058;9.028;2022-10-16T19:05:48;12.50;99.90
24103;DHT22;12278;53.058;9.028;2022-10-16T19:09:49;12.60;99.90
24103;DHT22;12278;53.058;9.028;2022-10-16T19:13:50;12.60;99.90
24103;DHT22;12278;53.058;9.028;2022-10-16T19:17:51;12.60;99.90
24103;DHT22;12278;53.058;9.028;2022-10-16T19:21:52;12.60;99.90
24103;DHT22;12278;53.058;9.028;2022-10-16T19:26:05;12.60;99.90
24103;DHT22;12278;53.058;9.028;2022-10-16T19:30:07;12.60;99.90
24103;DHT22;12278;53.058;9.028;2022-10-16T19:34:09;12.60;99.90
24103;DHT22;12278;53.058;9.028;2022-10-16T19:38:10;12.60;99.90
24103;DHT22;12278;53.058;9.028;2022-10-16T19:42:11;12.40;99.90
24103;DHT22;12278;53.058;9.028;2022-10-16T19:46:15;12.40;99.90
24103;DHT22;12278;53.058;9.028;2022-10-16T19:50:16;12.30;99.90
24103;DHT22;12278;53.058;9.028;2022-10-16T19:54:18;12.30;99.90
24103;DHT22;12278;53.058;9.028;2022-10-16T19:58:19;12.30;99.90
24103;DHT22;12278;53.058;9.028;2022-10-16T20:02:20;12.20;99.90
24103;DHT22;12278;53.058;9.028;2022-10-16T20:06:21;12.20;99.90
24103;DHT22;12278;53.058;9.028;2022-10-16T20:10:22;12.20;99.90
24103;DHT22;12278;53.058;9.028;2022-10-16T20:14:24;12.20;99.90
24103;DHT22;12278;53.058;9.028;2022-10-16T20:18:25;12.20;99.90
24103;DHT22;12278;53.058;9.028;2022-10-16T20:22:25;12.20;99.90
24103;DHT22;12278;53.058;9.028;2022-10-16T20:26:26;12.20;99.90
24103;DHT22;12278;53.058;9.028;2022-10-16T20:30:27;12.10;99.90
24103;DHT22;12278;53.058;9.028;2022-10-16T20:34:28;12.00;99.90
24103;DHT22;12278;53.058;9.028;2022-10-16T20:38:28;12.10;99.90
24103;DHT22;12278;53.058;9.028;2022-10-16T20:42:29;12.20;99.90
24103;DHT22;12278;53.058;9.028;2022-10-16T20:46:30;12.10;99.90
24103;DHT22;12278;53.058;9.028;2022-10-16T20:50:31;12.20;99.90
24103;DHT22;12278;53.058;9.028;2022-10-16T20:54:31;12.20;99.90
24103;DHT22;12278;53.058;9.028;2022-10-16T20:58:32;12.20;99.90
24103;DHT22;12278;53.058;9.028;2022-10-16T21:02:33;11.90;99.90
24103;DHT22;12278;53.058;9.028;2022-10-16T21:06:36;11.90;99.90
24103;DHT22;12278;53.058;9.028;2022-10-16T21:10:36;12.00;99.90
24103;DHT22;12278;53.058;9.028;2022-10-16T21:14:37;12.00;99.90
24103;DHT22;12278;53.058;9.028;2022-10-16T21:18:38;12.00;99.90
24103;DHT22;12278;53.058;9.028;2022-10-16T21:22:38;12.10;99.90
24103;DHT22;12278;53.058;9.028;2022-10-16T21:26:39;12.20;99.90
24103;DHT22;12278;53.058;9.028;2022-10-16T21:30:39;12.30;99.90
24103;DHT22;12278;53.058;9.028;2022-10-16T21:34:40;12.30;99.90
24103;DHT22;12278;53.058;9.028;2022-10-16T21:38:41;12.30;99.90
24103;DHT22;12278;53.058;9.028;2022-10-16T21:42:42;12.40;99.90
24103;DHT22;12278;53.058;9.028;2022-10-16T21:46:43;12.40;99.90
24103;DHT22;12278;53.058;9.028;2022-10-16T21:50:47;12.30;99.90
24103;DHT22;12278;53.058;9.028;2022-10-16T21:54:48;12.30;99.90
24103;DHT22;12278;53.058;9.028;2022-10-16T21:58:48;12.50;99.90
24103;DHT22;12278;53.058;9.028;2022-10-16T22:02:49;12.60;99.90
24103;DHT22;12278;53.058;9.028;2022-10-16T22:06:49;12.70;99.90
24103;DHT22;12278;53.058;9.028;2022-10-16T22:10:50;12.80;99.90
24103;DHT22;12278;53.058;9.028;2022-10-16T22:14:51;12.80;99.90
24103;DHT22;12278;53.058;9.028;2022-10-16T22:18:53;12.90;99.90
24103;DHT22;12278;53.058;9.028;2022-10-16T22:22:54;13.00;99.90
24103;DHT22;12278;53.058;9.028;2022-10-16T22:26:54;13.10;99.90
24103;DHT22;12278;53.058;9.028;2022-10-16T22:30:55;13.20;99.90
24103;DHT22;12278;53.058;9.028;2022-10-16T22:34:56;13.30;99.90
24103;DHT22;12278;53.058;9.028;2022-10-16T22:38:57;13.30;99.90
24103;DHT22;12278;53.058;9.028;2022-10-16T22:42:57;13.40;99.90
24103;DHT22;12278;53.058;9.028;2022-10-16T22:46:58;13.50;99.90
24103;DHT22;12278;53.058;9.028;2022-10-16T22:50:59;13.60;99.90
24103;DHT22;12278;53.058;9.028;2022-10-16T22:54:59;13.60;99.90
24103;DHT22;12278;53.058;9.028;2022-10-16T22:59:00;13.80;99.90
24103;DHT22;12278;53.058;9.028;2022-10-16T23:03:00;13.80;99.90
24103;DHT22;12278;53.058;9.028;2022-10-16T23:07:01;13.70;99.90
24103;DHT22;12278;53.058;9.028;2022-10-16T23:11:10;13.70;99.90
24103;DHT22;12278;53.058;9.028;2022-10-16T23:15:11;13.70;99.90
24103;DHT22;12278;53.058;9.028;2022-10-16T23:19:11;13.60;99.90
24103;DHT22;12278;53.058;9.028;2022-10-16T23:23:12;13.70;99.90
24103;DHT22;12278;53.058;9.028;2022-10-16T23:27:12;13.70;99.90
24103;DHT22;12278;53.058;9.028;2022-10-16T23:31:14;13.70;99.90
24103;DHT22;12278;53.058;9.028;2022-10-16T23:35:15;13.70;99.90
24103;DHT22;12278;53.058;9.028;2022-10-16T23:39:16;13.70;99.90
24103;DHT22;12278;53.058;9.028;2022-10-16T23:43:17;13.70;99.90
24103;DHT22;12278;53.058;9.028;2022-10-16T23:47:18;13.70;99.90
24103;DHT22;12278;53.058;9.028;2022-10-16T23:51:18;13.70;99.90
24103;DHT22;12278;53.058;9.028;2022-10-16T23:55:19;13.90;99.90
24103;DHT22;12278;53.058;9.028;2022-10-16T23:59:20;14.00;99.90
